Time;durP1;ratioP1;P1;durP2;ratioP2;P2;SDS_P1;SDS_P2;PMS_P1;PMS_P2;Temp;Humidity;BMP_temperature;BMP_pressure;BME280_temperature;BME280_humidity;BME280_pressure;Samples;Min_cycle;Max_cycle;Signal;HPM_P1;HPM_P2
2022/09/08 00:02:16;;;;;;;5.23;4.73;;;;;;;-144.22;100.00;60274.75;6099344;29;20312;-70
2022/09/08 00:05:27;;;;;;;7.70;4.43;;;;;;;-144.22;100.00;60274.75;6099130;29;20232;-70
2022/09/08 00:08:30;;;;;;;4.60;4.20;;;;;;;-144.22;100.00;60274.75;6085060;29;20239;-70
2022/09/08 00:11:34;;;;;;;4.90;4.40;;;;;;;-144.22;100.00;60274.75;6099641;29;20234;-70
2022/09/08 00:14:37;;;;;;;7.67;4.90;;;;;;;-144.22;100.00;60274.75;6099002;29;20243;-70
2022/09/08 00:17:39;;;;;;;4.90;4.00;;;;;;;-144.22;100.00;60274.75;6101142;29;20318;-70
2022/09/08 00:20:41;;;;;;;4.87;4.40;;;;;;;-144.22;100.00;60274.75;6099006;29;20238;-70
2022/09/08 00:23:43;;;;;;;4.70;4.20;;;;;;;-144.22;100.00;60274.75;6090071;29;20235;-70
2022/09/08 00:26:45;;;;;;;4.70;4.30;;;;;;;-144.22;100.00;60274.75;6088379;29;20243;-70
2022/09/08 00:29:46;;;;;;;3.73;3.43;;;;;;;-144.22;100.00;60274.75;6089305;29;20235;-70
2022/09/08 00:32:48;;;;;;;4.20;3.70;;;;;;;-144.22;100.00;60274.75;6103804;29;20397;-70
2022/09/08 00:35:51;;;;;;;3.77;3.47;;;;;;;-144.22;100.00;60274.75;6088117;29;20231;-70
2022/09/08 00:38:55;;;;;;;4.47;3.93;;;;;;;-144.22;100.00;60274.75;6089544;29;20786;-70
2022/09/08 00:41:58;;;;;;;3.90;3.53;;;;;;;-144.22;100.00;60274.75;6102368;29;20232;-70
2022/09/08 00:45:00;;;;;;;4.40;4.00;;;;;;;-144.22;100.00;60274.75;6089074;29;20625;-70
2022/09/08 00:48:05;;;;;;;6.13;4.40;;;;;;;-144.22;100.00;60274.75;6089067;29;20589;-70
2022/09/08 00:51:07;;;;;;;5.10;4.40;;;;;;;-144.22;100.00;60274.75;6088392;29;20254;-70
2022/09/08 00:54:10;;;;;;;4.50;4.10;;;;;;;-144.22;100.00;60274.75;6089168;29;20584;-70
2022/09/08 00:57:13;;;;;;;6.13;4.80;;;;;;;-144.22;100.00;60274.75;6088868;29;20731;-70
2022/09/08 01:05:04;;;;;;;6.20;4.70;;;;;;;-144.22;100.00;60274.75;6087565;29;20687;-70
2022/09/08 01:14:56;;;;;;;5.07;4.57;;;;;;;-144.22;100.00;60274.75;6088194;29;20232;-70
2022/09/08 01:17:58;;;;;;;5.73;5.23;;;;;;;-144.22;100.00;60274.75;6088432;29;20250;-70
2022/09/08 01:21:03;;;;;;;5.97;5.40;;;;;;;-144.22;100.00;60274.75;6088046;29;20707;-70
2022/09/08 01:24:31;;;;;;;6.70;5.23;;;;;;;-144.22;100.00;60274.75;6087791;29;20236;-70
2022/09/08 01:27:38;;;;;;;6.30;5.80;;;;;;;-144.22;100.00;60274.75;6087539;29;20230;-70
2022/09/08 01:30:42;;;;;;;6.53;5.97;;;;;;;-144.22;100.00;60274.75;6086996;29;20240;-70
2022/09/08 01:33:44;;;;;;;6.17;5.67;;;;;;;-144.22;100.00;60274.75;6089173;29;20318;-70
2022/09/08 01:36:46;;;;;;;6.00;5.50;;;;;;;-144.22;100.00;60274.75;6107019;29;20741;-70
2022/09/08 01:39:48;;;;;;;8.93;7.00;;;;;;;-144.22;100.00;60274.75;6092597;29;20609;-70
2022/09/08 01:42:50;;;;;;;6.83;6.13;;;;;;;-144.22;100.00;60274.75;6087362;29;20235;-70
2022/09/08 01:45:56;;;;;;;6.80;6.20;;;;;;;-144.22;100.00;60274.75;6086957;29;20614;-70
2022/09/08 01:48:58;;;;;;;7.23;6.53;;;;;;;-144.22;100.00;60274.75;6087542;29;20710;-70
2022/09/08 01:52:00;;;;;;;6.40;5.80;;;;;;;-144.22;100.00;60274.75;6087347;29;20733;-70
2022/09/08 01:55:03;;;;;;;6.23;5.63;;;;;;;-144.22;100.00;60274.75;6094625;29;20240;-70
2022/09/08 01:58:05;;;;;;;6.50;6.00;;;;;;;-144.22;100.00;60274.75;6074549;29;20258;-70
2022/09/08 02:01:08;;;;;;;6.67;5.97;;;;;;;-144.22;100.00;60274.75;6100913;29;20235;-70
2022/09/08 02:04:10;;;;;;;6.37;5.50;;;;;;;-144.22;100.00;60274.75;6100678;29;20226;-70
2022/09/08 02:07:12;;;;;;;6.87;5.67;;;;;;;-144.22;100.00;60274.75;6088461;29;20235;-70
2022/09/08 02:10:14;;;;;;;7.63;5.40;;;;;;;-144.22;100.00;60274.75;6062371;29;20248;-70
2022/09/08 02:13:16;;;;;;;6.27;5.43;;;;;;;-144.22;100.00;60274.75;6084145;29;20722;-70
2022/09/08 02:16:18;;;;;;;5.50;5.00;;;;;;;-144.22;100.00;60274.75;6087285;29;20498;-70
2022/09/08 02:19:20;;;;;;;6.47;5.87;;;;;;;-144.22;100.00;60274.75;6086793;29;20239;-70
2022/09/08 02:22:22;;;;;;;7.23;5.43;;;;;;;-144.22;100.00;60274.75;6086248;29;20238;-70
2022/09/08 02:25:24;;;;;;;5.87;5.37;;;;;;;-144.22;100.00;60274.75;6086199;29;20259;-70
2022/09/08 02:28:26;;;;;;;7.47;5.23;;;;;;;-144.22;100.00;60274.75;6087152;29;20698;-70
2022/09/08 02:31:28;;;;;;;5.70;5.20;;;;;;;-144.22;100.00;60274.75;6086722;29;20244;-70
2022/09/08 02:34:30;;;;;;;5.50;5.00;;;;;;;-144.22;100.00;60274.75;6086253;29;20603;-70
2022/09/08 02:37:32;;;;;;;5.90;5.40;;;;;;;-144.22;100.00;60274.75;6086212;29;20240;-70
2022/09/08 02:40:34;;;;;;;6.37;5.77;;;;;;;-144.22;100.00;60274.75;6086228;29;20243;-70
2022/09/08 02:43:36;;;;;;;8.27;5.80;;;;;;;-144.22;100.00;60274.75;6085965;29;20235;-69
2022/09/08 02:46:39;;;;;;;6.33;5.73;;;;;;;-144.22;100.00;60274.75;6101217;29;20615;-69
2022/09/08 02:49:41;;;;;;;6.27;5.63;;;;;;;-144.22;100.00;60274.75;6084301;29;20235;-69
2022/09/08 02:52:43;;;;;;;6.03;5.43;;;;;;;-144.22;100.00;60274.75;6085226;29;20594;-69
2022/09/08 02:55:45;;;;;;;6.43;5.63;;;;;;;-144.22;100.00;60274.75;6085032;29;20235;-69
2022/09/08 02:58:47;;;;;;;7.07;5.93;;;;;;;-144.22;100.00;60274.75;6087707;29;20224;-70
2022/09/08 03:01:49;;;;;;;6.30;5.80;;;;;;;-144.22;100.00;60274.75;6099923;29;20248;-69
2022/09/08 03:04:51;;;;;;;8.93;5.93;;;;;;;-144.22;100.00;60274.75;6101424;29;20706;-69
2022/09/08 03:07:53;;;;;;;6.87;5.97;;;;;;;-144.22;100.00;60274.75;6083859;29;20239;-69
2022/09/08 03:10:55;;;;;;;6.27;5.67;;;;;;;-144.22;100.00;60274.75;6099656;29;20702;-69
2022/09/08 03:13:59;;;;;;;6.10;5.50;;;;;;;-144.22;100.00;60274.75;6085685;29;20612;-69
2022/09/08 03:17:01;;;;;;;6.20;5.70;;;;;;;-144.22;100.00;60274.75;6085935;29;20243;-69
2022/09/08 03:20:03;;;;;;;6.17;5.57;;;;;;;-144.22;100.00;60274.75;6085400;29;20247;-70
2022/09/08 03:23:05;;;;;;;6.77;5.53;;;;;;;-144.22;100.00;60274.75;6098334;29;20240;-70
2022/09/08 03:26:13;;;;;;;6.37;5.77;;;;;;;-144.22;100.00;60274.75;6100397;29;20245;-70
2022/09/08 03:29:15;;;;;;;6.20;5.60;;;;;;;-144.22;100.00;60274.75;6085287;29;20236;-70
2022/09/08 03:32:17;;;;;;;6.27;5.67;;;;;;;-144.22;100.00;60274.75;6085293;29;20242;-69
2022/09/08 03:35:19;;;;;;;5.90;5.40;;;;;;;-144.22;100.00;60274.75;6087170;29;20234;-69
2022/09/08 03:38:21;;;;;;;5.90;5.40;;;;;;;-144.22;100.00;60274.75;6099609;29;20232;-69
2022/09/08 03:41:23;;;;;;;6.13;5.63;;;;;;;-144.22;100.00;60274.75;6085526;29;20728;-69
2022/09/08 03:44:25;;;;;;;6.57;5.50;;;;;;;-144.22;100.00;60274.75;6100987;29;20236;-69
2022/09/08 03:47:27;;;;;;;6.80;6.10;;;;;;;-144.22;100.00;60274.75;6085509;29;20227;-69
2022/09/08 03:50:29;;;;;;;6.00;5.37;;;;;;;-144.22;100.00;60274.75;6084784;29;20236;-69
2022/09/08 03:53:31;;;;;;;5.20;4.80;;;;;;;-144.22;100.00;60274.75;6088617;29;20240;-69
2022/09/08 03:56:33;;;;;;;6.10;5.40;;;;;;;-144.22;100.00;60274.75;6089740;29;20234;-70
2022/09/08 03:59:35;;;;;;;8.97;4.77;;;;;;;-144.22;100.00;60274.75;6105022;29;20235;-70
2022/09/08 04:02:37;;;;;;;5.20;4.73;;;;;;;-144.22;100.00;60274.75;6078729;29;20607;-70
2022/09/08 04:05:39;;;;;;;5.90;5.40;;;;;;;-144.22;100.00;60274.75;6089926;29;20630;-69
2022/09/08 04:08:41;;;;;;;7.70;5.20;;;;;;;-144.22;100.00;60274.75;6103867;29;20238;-69
2022/09/08 04:11:43;;;;;;;5.27;4.77;;;;;;;-144.22;100.00;60274.75;6089533;29;20232;-69
2022/09/08 04:14:48;;;;;;;5.53;5.03;;;;;;;-144.22;100.00;60274.75;6104951;29;20707;-69
2022/09/08 04:17:50;;;;;;;5.33;4.93;;;;;;;-144.22;100.00;60274.75;6089359;29;20233;-69
2022/09/08 04:21:01;;;;;;;6.77;5.23;;;;;;;-144.22;100.00;60274.75;6089002;29;20235;-69
2022/09/08 04:24:04;;;;;;;5.43;4.93;;;;;;;-144.22;100.00;60274.75;6088646;29;20243;-69
2022/09/08 04:27:06;;;;;;;5.53;4.77;;;;;;;-144.22;100.00;60274.75;6103314;29;20238;-69
2022/09/08 04:30:09;;;;;;;5.03;4.63;;;;;;;-144.22;100.00;60274.75;6088621;29;20247;-69
2022/09/08 04:33:11;;;;;;;5.23;4.70;;;;;;;-144.22;100.00;60274.75;6087142;29;20235;-69
2022/09/08 04:36:16;;;;;;;5.33;4.83;;;;;;;-144.22;100.00;60274.75;6087694;29;20211;-70
2022/09/08 04:39:28;;;;;;;5.37;4.87;;;;;;;-144.22;100.00;60274.75;6090254;29;20242;-70
2022/09/08 04:42:30;;;;;;;5.20;4.70;;;;;;;-144.22;100.00;60274.75;6093281;29;20235;-70
2022/09/08 04:45:32;;;;;;;8.30;5.80;;;;;;;-144.22;100.00;60274.75;6092801;29;20753;-69
2022/09/08 04:48:36;;;;;;;5.60;4.73;;;;;;;-144.22;100.00;60274.75;6090827;29;20235;-69
2022/09/08 04:51:38;;;;;;;6.43;5.47;;;;;;;-144.22;100.00;60274.75;6088456;29;20699;-69
2022/09/08 04:54:41;;;;;;;5.23;4.73;;;;;;;-144.22;100.00;60274.75;6088666;29;20244;-69
2022/09/08 04:57:43;;;;;;;5.47;4.90;;;;;;;-144.22;100.00;60274.75;6102655;29;20231;-69
2022/09/08 05:00:45;;;;;;;6.23;5.17;;;;;;;-144.22;100.00;60274.75;6089669;29;20688;-69
2022/09/08 05:03:51;;;;;;;8.27;5.27;;;;;;;-144.22;100.00;60274.75;6087208;29;20741;-70
2022/09/08 05:06:53;;;;;;;4.77;4.37;;;;;;;-144.22;100.00;60274.75;6087900;29;20585;-70
2022/09/08 05:09:55;;;;;;;5.27;4.77;;;;;;;-144.22;100.00;60274.75;6088025;29;20247;-70
2022/09/08 05:12:59;;;;;;;5.53;4.80;;;;;;;-144.22;100.00;60274.75;6087898;29;20231;-71
2022/09/08 05:16:03;;;;;;;5.70;5.20;;;;;;;-144.22;100.00;60274.75;6103873;29;20227;-70
2022/09/08 05:19:07;;;;;;;5.90;5.30;;;;;;;-144.22;100.00;60274.75;6088008;29;20314;-71
2022/09/08 05:22:09;;;;;;;5.63;4.73;;;;;;;-144.22;100.00;60274.75;6079633;29;20232;-70
2022/09/08 05:25:11;;;;;;;4.97;4.57;;;;;;;-144.22;100.00;60274.75;6086523;29;20738;-70
2022/09/08 05:28:13;;;;;;;5.10;4.70;;;;;;;-144.22;100.00;60274.75;6086740;29;20227;-70
2022/09/08 05:31:21;;;;;;;5.70;5.20;;;;;;;-144.22;100.00;60274.75;6086568;29;20595;-70
2022/09/08 05:34:23;;;;;;;5.30;4.73;;;;;;;-144.22;100.00;60274.75;6088391;29;20575;-70
2022/09/08 05:37:27;;;;;;;5.33;4.93;;;;;;;-144.22;100.00;60274.75;6087896;29;20244;-70
2022/09/08 05:40:29;;;;;;;6.07;4.33;;;;;;;-144.22;100.00;60274.75;6087277;29;20227;-70
2022/09/08 05:43:32;;;;;;;6.37;5.23;;;;;;;-144.22;100.00;60274.75;6086317;29;20243;-70
2022/09/08 05:46:33;;;;;;;4.87;4.47;;;;;;;-144.22;100.00;60274.75;6086462;29;20227;-70
2022/09/08 05:49:36;;;;;;;4.90;4.50;;;;;;;-144.22;100.00;60274.75;6087382;29;20239;-70
2022/09/08 05:52:37;;;;;;;4.83;4.43;;;;;;;-144.22;100.00;60274.75;6062545;29;20248;-70
2022/09/08 05:55:41;;;;;;;5.13;4.63;;;;;;;-144.22;100.00;60274.75;6085367;29;20242;-70
2022/09/08 05:58:43;;;;;;;5.27;4.77;;;;;;;-144.22;100.00;60274.75;6101082;29;20243;-70
2022/09/08 06:01:45;;;;;;;5.37;4.87;;;;;;;-144.22;100.00;60274.75;6086978;29;20231;-70
2022/09/08 06:04:47;;;;;;;5.30;4.80;;;;;;;-144.22;100.00;60274.75;6088082;29;20231;-70
2022/09/08 06:07:49;;;;;;;6.63;6.03;;;;;;;-144.22;100.00;60274.75;6086654;29;20667;-70
2022/09/08 06:10:52;;;;;;;5.87;4.97;;;;;;;-144.22;100.00;60274.75;6085840;29;20250;-70
2022/09/08 06:13:54;;;;;;;7.33;5.20;;;;;;;-144.22;100.00;60274.75;6101491;29;20232;-70
2022/09/08 06:16:56;;;;;;;5.37;4.97;;;;;;;-144.22;100.00;60274.75;6084982;29;20255;-70
2022/09/08 06:20:03;;;;;;;5.80;5.17;;;;;;;-144.22;100.00;60274.75;6086256;29;20318;-70
2022/09/08 06:23:06;;;;;;;6.00;4.97;;;;;;;-144.22;100.00;60274.75;6086220;29;20700;-70
2022/09/08 06:26:31;;;;;;;7.83;5.63;;;;;;;-144.22;100.00;60274.75;6087964;29;20238;-70
2022/09/08 06:29:58;;;;;;;5.90;5.40;;;;;;;-144.22;100.00;60274.75;6067141;29;20224;-70
2022/09/08 06:33:10;;;;;;;5.57;5.07;;;;;;;-144.22;100.00;60274.75;6085339;29;20331;-70
2022/09/08 06:36:32;;;;;;;5.60;5.20;;;;;;;-144.22;100.00;60274.75;6100603;29;20235;-70
2022/09/08 06:39:43;;;;;;;5.50;5.07;;;;;;;-144.22;100.00;60274.75;6100223;29;20224;-70
2022/09/08 06:43:03;;;;;;;6.83;6.23;;;;;;;-144.22;100.00;60274.75;6085531;29;20365;-70
2022/09/08 06:46:13;;;;;;;6.63;5.80;;;;;;;-144.22;100.00;60274.75;6098836;29;20236;-70
2022/09/08 06:49:15;;;;;;;6.40;5.73;;;;;;;-144.22;100.00;60274.75;6085639;29;20232;-70
2022/09/08 06:52:28;;;;;;;6.00;5.50;;;;;;;-144.22;100.00;60274.75;6083820;29;20242;-70
2022/09/08 06:55:46;;;;;;;6.93;5.67;;;;;;;-144.22;100.00;60274.75;6076189;29;20240;-70
2022/09/08 06:59:28;;;;;;;5.87;5.37;;;;;;;-144.22;100.00;60274.75;6094020;29;20295;-70
2022/09/08 07:02:45;;;;;;;5.87;5.37;;;;;;;-144.22;100.00;60274.75;6084580;29;20239;-70
2022/09/08 07:05:56;;;;;;;6.47;5.43;;;;;;;-144.22;100.00;60274.75;6090784;29;20263;-71
2022/09/08 07:09:10;;;;;;;6.30;5.70;;;;;;;-144.22;100.00;60274.75;6085229;29;20235;-70
2022/09/08 07:12:27;;;;;;;6.00;5.43;;;;;;;-144.22;100.00;60274.75;6085470;29;20735;-70
2022/09/08 07:15:29;;;;;;;6.67;5.10;;;;;;;-144.22;100.00;60274.75;6084645;29;20231;-70
2022/09/08 07:18:49;;;;;;;5.63;5.13;;;;;;;-144.22;100.00;60274.75;6085995;29;20224;-70
2022/09/08 07:22:01;;;;;;;5.17;4.57;;;;;;;-144.22;100.00;60274.75;6084855;29;20236;-70
2022/09/08 07:25:24;;;;;;;6.00;5.13;;;;;;;-144.22;100.00;60274.75;6085609;29;20351;-70
2022/09/08 07:28:33;;;;;;;4.70;4.30;;;;;;;-144.22;100.00;60274.75;6088127;29;20239;-70
2022/09/08 07:31:43;;;;;;;5.13;4.70;;;;;;;-144.22;100.00;60274.75;6089792;29;20268;-70
2022/09/08 07:34:57;;;;;;;4.60;4.30;;;;;;;-144.22;100.00;60274.75;6089725;29;20232;-70
2022/09/08 07:38:08;;;;;;;4.57;3.90;;;;;;;-144.22;100.00;60274.75;6103735;29;20228;-71
2022/09/08 07:41:18;;;;;;;4.30;3.67;;;;;;;-144.22;100.00;60274.75;6089745;29;20242;-71
2022/09/08 07:44:21;;;;;;;5.97;4.17;;;;;;;-144.22;100.00;60274.75;6103674;29;20250;-70
2022/09/08 07:47:54;;;;;;;4.40;4.00;;;;;;;-144.22;100.00;60274.75;6089976;29;20224;-71
2022/09/08 07:51:09;;;;;;;4.17;3.80;;;;;;;-144.22;100.00;60274.75;6088776;29;20240;-71
2022/09/08 07:54:22;;;;;;;3.80;3.33;;;;;;;188.01;100.00;60274.75;6089120;29;20612;-71
2022/09/08 07:57:27;;;;;;;3.93;3.40;;;;;;;-144.22;100.00;60274.75;6089250;29;20691;-71
2022/09/08 08:00:58;;;;;;;4.37;3.97;;;;;;;32.13;100.00;60274.75;6089207;29;20228;-71
2022/09/08 08:04:27;;;;;;;5.03;3.60;;;;;;;-144.22;100.00;60274.75;6088463;29;20323;-71
2022/09/08 08:07:37;;;;;;;3.77;3.10;;;;;;;-144.22;100.00;60274.75;6102799;29;20388;-71
2022/09/08 08:11:04;;;;;;;4.70;3.33;;;;;;;-144.22;100.00;60274.75;6089268;29;20606;-72
2022/09/08 08:14:17;;;;;;;4.93;3.37;;;;;;;-144.22;100.00;60274.75;6089058;29;20240;-70
2022/09/08 08:17:32;;;;;;;5.03;3.20;;;;;;;-144.22;100.00;60274.75;6089315;29;20240;-71
2022/09/08 08:20:44;;;;;;;3.50;3.10;;;;;;;-144.22;100.00;60274.75;6087217;29;20278;-71
2022/09/08 08:24:24;;;;;;;4.83;3.23;;;;;;;-144.22;100.00;60274.75;6089409;29;20703;-71
2022/09/08 08:27:46;;;;;;;3.50;3.20;;;;;;;-144.22;100.00;60274.75;6089278;29;20228;-71
2022/09/08 08:31:16;;;;;;;3.20;2.90;;;;;;;-144.22;100.00;60274.75;6104324;29;20310;-71
2022/09/08 08:34:28;;;;;;;3.15;2.85;;;;;;;-144.22;100.00;60274.75;6087016;29;20239;-71
2022/09/08 08:37:36;;;;;;;5.35;3.22;;;;;;;-144.22;100.00;60274.75;6102432;29;20606;-72
2022/09/08 08:40:56;;;;;;;4.85;2.67;;;;;;;63.28;100.00;60274.75;6091509;29;20687;-71
2022/09/08 08:44:08;;;;;;;6.18;3.17;;;;;;;-144.22;100.00;60274.75;6088570;29;20239;-71
2022/09/08 08:47:53;;;;;;;4.70;2.70;;;;;;;-144.22;100.00;60274.75;6089133;29;20730;-71
2022/09/08 08:51:16;;;;;;;3.78;3.00;;;;;;;-144.22;100.00;60274.75;6101381;29;20243;-71
2022/09/08 08:54:45;;;;;;;5.50;2.97;;;;;;;26.82;100.00;60274.75;6102428;29;20695;-71
2022/09/08 08:58:20;;;;;;;3.25;2.90;;;;;;;-144.22;100.00;60274.75;6088351;29;20227;-71
2022/09/08 09:02:23;;;;;;;3.42;3.03;;;;;;;29.53;100.00;60274.75;6101783;29;20805;-72
2022/09/08 09:06:03;;;;;;;3.90;2.92;;;;;;;-144.22;100.00;60274.75;6060495;29;20232;-71
2022/09/08 09:09:29;;;;;;;4.50;3.28;;;;;;;-144.22;100.00;60274.75;6061207;29;20229;-71
2022/09/08 09:12:54;;;;;;;3.45;3.15;;;;;;;-144.22;100.00;60274.75;6060849;29;20228;-72
2022/09/08 09:16:13;;;;;;;3.40;3.10;;;;;;;-144.22;100.00;60274.75;6061595;29;20225;-72
2022/09/08 09:19:56;;;;;;;5.05;4.05;;;;;;;-144.22;100.00;60274.75;6060619;29;20653;-72
2022/09/08 09:23:08;;;;;;;3.60;3.30;;;;;;;29.53;100.00;60274.75;6038935;29;20233;-71
2022/09/08 09:26:25;;;;;;;3.42;3.13;;;;;;;28.60;100.00;60274.75;6050726;29;20243;-71
2022/09/08 09:29:37;;;;;;;3.03;2.72;;;;;;;-144.22;100.00;60274.75;6060237;29;20239;-71
2022/09/08 09:33:17;;;;;;;4.00;3.10;;;;;;;29.21;100.00;60274.75;6061735;29;20374;-71
2022/09/08 09:36:44;;;;;;;3.20;2.90;;;;;;;-144.22;100.00;60274.75;6072446;29;20235;-71
2022/09/08 09:40:06;;;;;;;4.32;2.95;;;;;;;29.37;100.00;60274.75;6101757;29;20288;-71
2022/09/08 09:43:36;;;;;;;3.70;3.08;;;;;;;29.49;100.00;60274.75;6085358;29;20250;-71
2022/09/08 09:47:05;;;;;;;3.53;3.22;;;;;;;-144.22;100.00;60274.75;6087361;29;20352;-72
2022/09/08 09:50:19;;;;;;;3.45;2.88;;;;;;;29.29;100.00;60274.75;6086356;29;20243;-72
2022/09/08 09:53:33;;;;;;;4.82;2.90;;;;;;;29.21;100.00;60274.75;6086718;29;20244;-71
2022/09/08 09:56:42;;;;;;;3.00;2.80;;;;;;;-144.22;100.00;60274.75;6100617;29;20699;-71
2022/09/08 10:00:13;;;;;;;3.50;3.20;;;;;;;-144.22;100.00;60274.75;6100794;29;20322;-71
2022/09/08 10:03:33;;;;;;;3.95;2.83;;;;;;;-144.22;100.00;60274.75;6099282;29;20553;-70
2022/09/08 10:07:03;;;;;;;4.20;3.72;;;;;;;29.37;100.00;60274.75;6068443;29;20247;-69
2022/09/08 10:11:03;;;;;;;4.90;3.28;;;;;;;29.53;100.00;60274.75;6086911;29;20745;-70
2022/09/08 10:14:08;;;;;;;6.35;3.80;;;;;;;-144.22;100.00;60274.75;6027157;29;20548;-70
2022/09/08 10:17:19;;;;;;;5.03;3.75;;;;;;;-144.22;100.00;60274.75;6037127;29;20237;-71
2022/09/08 10:20:55;;;;;;;3.58;3.28;;;;;;;-144.22;100.00;60274.75;6035990;29;20697;-71
2022/09/08 10:24:06;;;;;;;4.38;3.58;;;;;;;-144.22;100.00;60274.75;6035816;29;20846;-71
2022/09/08 10:27:17;;;;;;;3.60;3.30;;;;;;;-144.22;100.00;60274.75;6037113;29;20698;-70
2022/09/08 10:31:00;;;;;;;3.28;2.97;;;;;;;-144.22;100.00;60274.75;6036627;29;20229;-71
2022/09/08 10:34:37;;;;;;;5.88;2.83;;;;;;;-144.22;100.00;60274.75;6034664;29;20376;-70
2022/09/08 10:38:09;;;;;;;3.47;2.80;;;;;;;-144.22;100.00;60274.75;6024917;29;20229;-72
2022/09/08 10:41:48;;;;;;;3.80;2.80;;;;;;;31.15;100.00;60274.75;6036022;29;20237;-72
2022/09/08 10:45:28;;;;;;;4.65;3.40;;;;;;;-144.22;100.00;60274.75;6035876;29;20245;-71
2022/09/08 10:49:04;;;;;;;3.33;3.03;;;;;;;-144.22;100.00;60274.75;6037229;29;20272;-71
2022/09/08 10:52:51;;;;;;;6.63;3.33;;;;;;;-144.22;100.00;60274.75;6092161;29;20236;-71
2022/09/08 10:56:07;;;;;;;3.95;3.50;;;;;;;-144.22;100.00;60274.75;6012800;29;20939;-71
2022/09/08 10:59:31;;;;;;;4.82;3.67;;;;;;;-144.22;100.00;60274.75;6013253;29;20610;-71
2022/09/08 11:03:27;;;;;;;4.07;3.78;;;;;;;29.37;100.00;60274.75;6013294;29;20242;-71
2022/09/08 11:06:35;;;;;;;6.63;3.88;;;;;;;29.37;100.00;60274.75;6004422;29;20234;-71
2022/09/08 11:09:51;;;;;;;4.22;3.72;;;;;;;-144.22;100.00;60274.75;6012688;29;20246;-71
2022/09/08 11:13:59;;;;;;;6.20;3.60;;;;;;;-144.22;100.00;60274.75;6012513;29;20305;-71
2022/09/08 11:17:27;;;;;;;7.78;3.50;;;;;;;-144.22;100.00;60274.75;5911006;29;20245;-71
2022/09/08 11:20:34;;;;;;;4.00;3.60;;;;;;;-144.22;100.00;60274.75;6013072;29;20245;-70
2022/09/08 11:23:51;;;;;;;4.63;3.88;;;;;;;-144.22;100.00;60274.75;6012710;29;20260;-70
2022/09/08 11:27:09;;;;;;;6.97;3.78;;;;;;;27.91;100.00;60274.75;6060791;29;20745;-71
2022/09/08 11:30:23;;;;;;;4.93;3.03;;;;;;;28.23;100.00;60274.75;6089652;29;20762;-71
2022/09/08 11:33:51;;;;;;;4.30;3.13;;;;;;;-144.22;100.00;60274.75;6084735;29;20220;-70
2022/09/08 11:37:31;;;;;;;4.50;3.13;;;;;;;26.86;100.00;60274.75;6071480;29;20316;-71
2022/09/08 11:40:55;;;;;;;3.70;3.33;;;;;;;-144.22;100.00;60274.75;6063697;29;20742;-71
2022/09/08 11:44:06;;;;;;;3.92;3.13;;;;;;;32.13;100.00;60274.75;6084208;29;20236;-71
2022/09/08 11:47:26;;;;;;;3.88;3.40;;;;;;;-144.22;100.00;60274.75;6084795;29;20722;-71
2022/09/08 11:50:34;;;;;;;3.80;3.40;;;;;;;25.82;50.89;97184.94;6084619;29;20542;-71
2022/09/08 11:54:26;;;;;;;4.18;3.63;;;;;;;25.32;53.07;97201.41;6086420;29;20245;-70
2022/09/08 11:58:23;;;;;;;4.28;3.63;;;;;;;24.89;54.35;97201.47;6085275;29;20285;-71
2022/09/08 12:01:53;;;;;;;4.68;3.30;;;;;;;24.51;55.04;97190.91;6074812;29;20236;-70
2022/09/08 12:05:33;;;;;;;5.07;3.50;;;;;;;23.95;56.44;97201.75;6085724;29;20727;-70
2022/09/08 12:09:36;;;;;;;4.90;3.22;;;;;;;23.55;58.02;97203.91;6084079;29;20232;-71
2022/09/08 12:12:41;;;;;;;3.88;3.25;;;;;;;23.41;58.59;97203.09;5989573;29;20235;-70
2022/09/08 12:16:07;;;;;;;6.38;3.15;;;;;;;23.21;59.54;97221.22;5993606;29;20617;-71
2022/09/08 12:19:43;;;;;;;3.70;3.35;;;;;;;23.03;60.18;97246.16;5993541;29;20790;-70
2022/09/08 12:23:15;;;;;;;4.03;3.00;;;;;;;22.77;62.12;97265.88;5984322;29;20242;-70
2022/09/08 12:26:29;;;;;;;6.00;3.30;;;;;;;22.50;64.02;97258.88;5993440;29;20317;-72
2022/09/08 12:29:43;;;;;;;4.63;3.30;;;;;;;22.09;65.37;97251.00;5993488;29;20253;-69
2022/09/08 12:33:07;;;;;;;13.70;4.50;;;;;;;21.62;67.55;97260.00;5993071;29;20247;-69
2022/09/08 12:36:17;;;;;;;5.10;3.50;;;;;;;21.34;69.28;97266.34;5993969;29;20253;-69
2022/09/08 12:39:50;;;;;;;7.93;4.47;;;;;;;20.99;73.30;97281.63;5992588;29;20233;-68
2022/09/08 12:43:16;;;;;;;5.90;3.50;;;;;;;20.53;75.01;97281.34;5992276;29;20294;-69
2022/09/08 12:46:44;;;;;;;6.20;3.00;;;;;;;20.21;76.70;97265.78;5992948;29;20267;-68
2022/09/08 12:50:31;;;;;;;6.13;2.90;;;;;;;19.94;77.02;97286.16;6089078;29;20239;-68
2022/09/08 12:54:10;;;;;;;3.10;2.80;;;;;;;19.72;78.80;97285.31;6079160;29;20585;-69
2022/09/08 12:57:33;;;;;;;4.63;2.63;;;;;;;19.53;80.27;97264.53;6084164;29;20228;-69
2022/09/08 13:00:41;;;;;;;4.60;2.80;;;;;;;19.33;80.42;97250.06;6088072;29;20712;-69
2022/09/08 13:03:46;;;;;;;3.67;2.43;;;;;;;19.27;80.60;97235.56;6087602;29;20323;-68
2022/09/08 13:07:02;;;;;;;3.80;2.37;;;;;;;19.13;81.49;97217.72;6087410;29;20263;-69
2022/09/08 13:10:10;;;;;;;2.43;2.13;;;;;;;19.09;81.86;97232.47;6087357;29;20250;-69
2022/09/08 13:13:44;;;;;;;2.60;2.40;;;;;;;19.00;82.59;97249.66;6090181;29;20240;-69
2022/09/08 13:17:07;;;;;;;2.83;2.60;;;;;;;19.01;81.47;97246.81;6087371;29;20710;-70
2022/09/08 13:20:28;;;;;;;2.60;2.40;;;;;;;19.05;81.71;97261.47;6087788;29;20236;-69
2022/09/08 13:23:36;;;;;;;5.33;2.77;;;;;;;19.00;82.32;97255.84;6096841;29;20219;-70
2022/09/08 13:26:52;;;;;;;2.67;2.47;;;;;;;18.93;82.42;97262.94;6086957;29;20227;-69
2022/09/08 13:29:56;;;;;;;2.40;2.20;;;;;;;18.91;82.36;97264.16;6087244;29;20715;-69
2022/09/08 13:33:24;;;;;;;3.33;2.30;;;;;;;18.91;82.61;97272.16;6085898;29;20587;-69
2022/09/08 13:36:57;;;;;;;2.10;1.90;;;;;;;18.91;82.71;97305.09;6087620;29;20228;-69
2022/09/08 13:40:18;;;;;;;2.10;1.83;;;;;;;18.80;83.52;97341.13;6086591;29;20256;-70
2022/09/08 13:43:38;;;;;;;2.93;1.93;;;;;;;18.71;82.69;97325.38;6087325;29;20715;-69
2022/09/08 13:46:51;;;;;;;4.40;2.17;;;;;;;18.78;82.92;97313.75;6101568;29;20627;-68
2022/09/08 13:50:45;;;;;;;4.47;2.00;;;;;;;18.91;82.89;97296.25;6087455;29;20326;-69
2022/09/08 13:54:33;;;;;;;4.07;1.87;;;;;;;19.17;82.85;97292.06;6083513;29;20310;-69
2022/09/08 13:57:42;;;;;;;1.87;1.37;;;;;;;19.16;81.01;97303.78;6086627;29;20235;-69
2022/09/08 14:01:10;;;;;;;1.53;1.33;;;;;;;19.16;80.96;97308.31;6085790;29;20680;-69
2022/09/08 14:04:12;;;;;;;2.20;1.53;;;;;;;19.54;80.55;97290.28;6069060;29;20927;-69
2022/09/08 14:07:24;;;;;;;2.23;1.17;;;;;;;19.82;79.63;97272.44;6064687;29;20233;-69
2022/09/08 14:10:29;;;;;;;2.07;1.30;;;;;;;20.06;78.38;97279.28;6086842;29;20239;-69
2022/09/08 14:13:37;;;;;;;3.17;1.13;;;;;;;19.87;78.55;97295.97;6088252;29;20243;-69
2022/09/08 14:16:43;;;;;;;1.20;1.10;;;;;;;19.67;78.37;97306.47;6089790;29;20247;-69
2022/09/08 14:20:17;;;;;;;1.63;1.10;;;;;;;19.90;78.57;97306.31;6091415;29;20232;-69
2022/09/08 14:23:37;;;;;;;1.57;1.10;;;;;;;20.46;77.19;97312.59;6086243;29;20620;-69
2022/09/08 14:26:49;;;;;;;0.90;0.90;;;;;;;20.69;74.96;97323.09;6102501;29;20243;-69
2022/09/08 14:30:17;;;;;;;1.63;0.90;;;;;;;20.66;74.95;97317.31;6102018;29;20247;-69
2022/09/08 14:33:32;;;;;;;1.37;0.90;;;;;;;20.10;76.55;97317.22;6085212;29;20239;-69
2022/09/08 14:36:55;;;;;;;0.60;0.60;;;;;;;19.87;76.61;97312.03;6077950;29;20236;-69
2022/09/08 14:40:18;;;;;;;1.43;0.80;;;;;;;19.79;77.51;97321.03;6075898;29;20231;-69
2022/09/08 14:43:58;;;;;;;0.77;0.77;;;;;;;19.86;78.09;97297.00;6086468;29;20727;-69
2022/09/08 14:47:05;;;;;;;0.87;0.70;;;;;;;19.52;78.04;97303.84;6079864;29;20782;-69
2022/09/08 14:50:15;;;;;;;0.70;0.70;;;;;;;19.31;79.18;97317.16;6086024;29;20255;-69
2022/09/08 14:53:32;;;;;;;0.77;0.77;;;;;;;19.22;80.06;97310.25;6084038;29;20240;-69
2022/09/08 14:56:46;;;;;;;0.70;0.60;;;;;;;18.98;80.47;97321.22;6085078;29;20232;-69
2022/09/08 15:00:14;;;;;;;0.60;0.60;;;;;;;18.77;80.97;97332.63;6099771;29;20240;-69